createdAt,value
2018-07-25T00:00:30.773Z,0.00
2018-07-25T00:01:30.984Z,0.00
2018-07-25T00:02:30.987Z,0.00
2018-07-25T00:03:30.795Z,0.00
2018-07-25T00:04:30.812Z,0.00
2018-07-25T00:05:30.804Z,0.00
2018-07-25T00:06:30.823Z,0.00
2018-07-25T00:07:30.812Z,0.00
2018-07-25T00:08:30.830Z,0.00
2018-07-25T00:09:30.837Z,0.00
2018-07-25T00:10:30.857Z,0.00
2018-07-25T00:11:30.839Z,0.00
2018-07-25T00:12:31.081Z,0.00
2018-07-25T00:13:30.865Z,0.00
2018-07-25T00:14:30.855Z,0.00
2018-07-25T00:15:30.865Z,0.00
2018-07-25T00:16:31.085Z,0.00
2018-07-25T00:17:30.872Z,0.00
2018-07-25T00:18:31.106Z,0.00
2018-07-25T00:19:31.111Z,0.00
2018-07-25T00:20:30.904Z,0.00
2018-07-25T00:21:31.151Z,0.00
2018-07-25T00:22:30.918Z,0.00
2018-07-25T00:23:30.909Z,0.00
2018-07-25T00:24:31.128Z,0.00
2018-07-25T00:25:30.924Z,0.00
2018-07-25T00:26:30.934Z,0.00
2018-07-25T00:27:30.944Z,0.00
2018-07-25T00:28:31.139Z,0.00
2018-07-25T00:29:30.956Z,0.00
2018-07-25T00:30:30.957Z,0.00
2018-07-25T00:31:30.954Z,0.00
2018-07-25T00:32:31.160Z,0.00
2018-07-25T00:33:31.166Z,0.00
2018-07-25T00:34:31.018Z,0.00
2018-07-25T00:35:31.000Z,0.00
2018-07-25T00:36:31.000Z,0.00
2018-07-25T00:37:30.987Z,0.00
2018-07-25T00:38:31.001Z,0.00
2018-07-25T00:39:30.999Z,0.00
2018-07-25T00:40:31.017Z,0.00
2018-07-25T00:41:31.010Z,0.00
2018-07-25T00:42:31.018Z,0.00
2018-07-25T00:43:31.027Z,0.00
2018-07-25T00:44:31.041Z,0.00
2018-07-25T00:45:31.036Z,0.00
2018-07-25T00:46:31.052Z,0.00
2018-07-25T00:47:31.047Z,0.00
2018-07-25T00:48:31.052Z,0.00
2018-07-25T00:49:31.061Z,0.00
2018-07-25T00:50:31.267Z,0.00
2018-07-25T00:51:31.273Z,0.00
2018-07-25T00:52:31.280Z,0.00
2018-07-25T00:53:31.096Z,0.00
2018-07-25T00:54:31.088Z,0.00
2018-07-25T00:55:31.165Z,0.00
2018-07-25T00:56:31.102Z,0.00
2018-07-25T00:57:31.308Z,0.00
2018-07-25T00:58:31.121Z,0.00
2018-07-25T00:59:31.319Z,0.00
2018-07-25T01:00:31.146Z,0.00
2018-07-25T01:01:31.349Z,0.00
2018-07-25T01:02:31.147Z,0.00
2018-07-25T01:03:31.346Z,0.00
2018-07-25T01:04:31.162Z,0.00
2018-07-25T01:05:31.163Z,0.00
2018-07-25T01:06:31.165Z,0.00
2018-07-25T01:07:31.196Z,0.00
2018-07-25T01:08:31.184Z,0.00
2018-07-25T01:09:31.195Z,0.00
2018-07-25T01:10:31.402Z,0.00
2018-07-25T01:11:31.208Z,0.00
2018-07-25T01:12:31.425Z,0.00
2018-07-25T01:13:31.410Z,0.00
2018-07-25T01:14:31.413Z,0.00
2018-07-25T01:15:31.227Z,0.00
2018-07-25T01:16:31.236Z,0.00
2018-07-25T01:17:31.232Z,0.00
2018-07-25T01:18:31.239Z,0.00
2018-07-25T01:19:31.244Z,0.00
2018-07-25T01:20:31.450Z,0.00
2018-07-25T01:21:31.268Z,0.00
2018-07-25T01:22:31.261Z,0.00
2018-07-25T01:23:31.267Z,0.00
2018-07-25T01:24:31.288Z,0.00
2018-07-25T01:25:31.283Z,0.00
2018-07-25T01:26:31.314Z,0.00
2018-07-25T01:27:31.499Z,0.00
2018-07-25T01:28:31.501Z,0.00
2018-07-25T01:29:31.305Z,0.00
2018-07-25T01:30:31.316Z,0.00
2018-07-25T01:31:31.321Z,0.00
2018-07-25T01:32:31.324Z,0.00
2018-07-25T01:33:31.532Z,0.00
2018-07-25T01:34:31.336Z,0.00
2018-07-25T01:35:31.547Z,0.00
2018-07-25T01:36:31.354Z,0.00
2018-07-25T01:37:31.365Z,0.00
2018-07-25T01:38:31.362Z,0.00
2018-07-25T01:39:31.366Z,0.00
2018-07-25T01:40:31.390Z,0.00
2018-07-25T01:41:31.581Z,0.00
2018-07-25T01:42:31.382Z,0.00
2018-07-25T01:43:31.592Z,0.00
2018-07-25T01:44:31.598Z,0.00
2018-07-25T01:45:31.605Z,0.00
2018-07-25T01:46:31.620Z,0.00
2018-07-25T01:47:31.417Z,0.00
2018-07-25T01:48:31.636Z,0.00
2018-07-25T01:49:31.439Z,0.00
2018-07-25T01:50:31.433Z,0.00
2018-07-25T01:51:31.437Z,0.00
2018-07-25T01:52:31.444Z,0.00
2018-07-25T01:53:31.652Z,0.00
2018-07-25T01:54:31.454Z,0.00
2018-07-25T01:55:31.471Z,0.00
2018-07-25T01:56:31.466Z,0.00
2018-07-25T01:57:31.472Z,0.00
2018-07-25T01:58:31.478Z,0.00
2018-07-25T01:59:31.484Z,0.00
2018-07-25T02:00:31.692Z,0.00
2018-07-25T02:01:31.824Z,0.00
2018-07-25T02:02:31.501Z,0.00
2018-07-25T02:03:31.504Z,0.00
2018-07-25T02:04:31.511Z,0.00
2018-07-25T02:05:31.521Z,0.00
2018-07-25T02:06:31.738Z,0.00
2018-07-25T02:07:31.531Z,0.00
2018-07-25T02:08:31.738Z,0.00
2018-07-25T02:09:31.575Z,0.00
2018-07-25T02:10:31.747Z,0.00
2018-07-25T02:11:31.578Z,0.00
2018-07-25T02:12:31.573Z,0.00
2018-07-25T02:13:31.767Z,0.00
2018-07-25T02:14:31.579Z,0.00
2018-07-25T02:15:31.774Z,0.00
2018-07-25T02:16:31.579Z,0.00
2018-07-25T02:17:31.585Z,0.00
2018-07-25T02:18:31.589Z,0.00
2018-07-25T02:19:31.601Z,0.00
2018-07-25T02:20:31.801Z,0.00
2018-07-25T02:21:31.606Z,0.00
2018-07-25T02:22:31.613Z,0.00
2018-07-25T02:23:31.618Z,0.00
2018-07-25T02:24:31.621Z,0.00
2018-07-25T02:25:31.630Z,0.00
2018-07-25T02:26:31.648Z,0.00
2018-07-25T02:27:31.640Z,0.00
2018-07-25T02:28:31.645Z,0.00
2018-07-25T02:29:31.650Z,0.00
2018-07-25T02:30:31.855Z,0.00
2018-07-25T02:31:31.660Z,0.00
2018-07-25T02:32:31.672Z,0.00
2018-07-25T02:33:31.699Z,0.00
2018-07-25T02:34:31.683Z,0.00
2018-07-25T02:35:31.690Z,0.00
2018-07-25T02:36:31.690Z,0.00
2018-07-25T02:37:31.709Z,0.00
2018-07-25T02:38:31.696Z,0.00
2018-07-25T02:39:31.702Z,0.00
2018-07-25T02:40:31.708Z,0.00
2018-07-25T02:41:31.719Z,0.00
2018-07-25T02:42:31.820Z,0.00
2018-07-25T02:43:31.729Z,0.00
2018-07-25T02:44:31.744Z,0.00
2018-07-25T02:45:31.753Z,0.00
2018-07-25T02:46:31.740Z,0.00
2018-07-25T02:47:31.761Z,0.00
2018-07-25T02:48:31.765Z,0.00
2018-07-25T02:49:31.757Z,0.00
2018-07-25T02:50:31.767Z,0.00
2018-07-25T02:51:31.768Z,0.00
2018-07-25T02:52:31.771Z,0.00
2018-07-25T02:53:31.780Z,0.00
2018-07-25T02:54:31.784Z,0.00
2018-07-25T02:55:31.992Z,0.00
2018-07-25T02:56:31.794Z,0.00
2018-07-25T02:57:31.801Z,0.00
2018-07-25T02:58:32.015Z,0.00
2018-07-25T02:59:32.028Z,0.00
2018-07-25T03:00:32.031Z,0.00
2018-07-25T03:01:32.031Z,0.00
2018-07-25T03:02:32.038Z,0.00
2018-07-25T03:03:32.051Z,0.00
2018-07-25T03:04:31.836Z,0.00
2018-07-25T03:05:31.841Z,0.00
2018-07-25T03:06:32.049Z,0.00
2018-07-25T03:07:31.864Z,0.00
2018-07-25T03:08:31.873Z,0.00
2018-07-25T03:09:31.886Z,0.00
2018-07-25T03:10:31.891Z,0.00
2018-07-25T03:11:31.884Z,0.00
2018-07-25T03:12:31.879Z,0.00
2018-07-25T03:13:31.888Z,0.00
2018-07-25T03:14:31.885Z,0.00
2018-07-25T03:15:31.911Z,0.00
2018-07-25T03:16:32.140Z,0.00
2018-07-25T03:17:31.935Z,0.00
2018-07-25T03:18:32.118Z,0.00
2018-07-25T03:19:31.915Z,0.00
2018-07-25T03:20:31.917Z,0.00
2018-07-25T03:21:31.923Z,0.00
2018-07-25T03:22:31.924Z,0.00
2018-07-25T03:23:31.933Z,0.00
2018-07-25T03:24:32.153Z,0.00
2018-07-25T03:25:31.944Z,0.00
2018-07-25T03:26:31.973Z,0.00
2018-07-25T03:27:31.959Z,0.00
2018-07-25T03:28:31.955Z,0.00
2018-07-25T03:29:32.175Z,0.00
2018-07-25T03:30:31.965Z,0.00
2018-07-25T03:31:32.275Z,4.00
2018-07-25T03:32:31.990Z,4.00
2018-07-25T03:33:31.981Z,4.00
2018-07-25T03:34:32.184Z,0.00
2018-07-25T03:35:31.991Z,0.00
2018-07-25T03:36:31.995Z,0.00
2018-07-25T03:37:32.013Z,0.00
2018-07-25T03:38:32.008Z,4.00
2018-07-25T03:39:32.011Z,4.00
2018-07-25T03:40:32.241Z,4.00
2018-07-25T03:41:32.021Z,0.00
2018-07-25T03:42:32.243Z,0.00
2018-07-25T03:43:32.027Z,4.00
2018-07-25T03:44:32.245Z,4.00
2018-07-25T03:45:32.047Z,4.00
2018-07-25T03:46:32.054Z,4.00
2018-07-25T03:47:32.050Z,4.00
2018-07-25T03:48:32.054Z,4.00
2018-07-25T03:49:32.090Z,4.00
2018-07-25T03:50:32.064Z,8.00
2018-07-25T03:51:32.089Z,4.00
2018-07-25T03:52:32.075Z,4.00
2018-07-25T03:53:32.095Z,8.00
2018-07-25T03:54:32.084Z,4.00
2018-07-25T03:55:32.102Z,8.00
2018-07-25T03:56:32.111Z,8.00
2018-07-25T03:57:32.101Z,8.00
2018-07-25T03:58:32.113Z,8.00
2018-07-25T03:59:32.322Z,12.00
2018-07-25T04:00:32.127Z,8.00
2018-07-25T04:01:32.123Z,12.00
2018-07-25T04:02:32.330Z,8.00
2018-07-25T04:03:32.343Z,12.00
2018-07-25T04:04:32.134Z,12.00
2018-07-25T04:05:32.139Z,12.00
2018-07-25T04:06:32.156Z,12.00
2018-07-25T04:07:32.360Z,16.00
2018-07-25T04:08:32.154Z,12.00
2018-07-25T04:09:32.376Z,16.00
2018-07-25T04:10:32.375Z,16.00
2018-07-25T04:11:32.379Z,16.00
2018-07-25T04:12:32.376Z,16.00
2018-07-25T04:13:32.177Z,16.00
2018-07-25T04:14:32.181Z,20.00
2018-07-25T04:15:32.186Z,16.00
2018-07-25T04:16:32.221Z,20.00
2018-07-25T04:17:32.428Z,20.00
2018-07-25T04:18:32.201Z,20.00
2018-07-25T04:19:32.207Z,24.00
2018-07-25T04:20:32.221Z,24.00
2018-07-25T04:21:32.227Z,24.00
2018-07-25T04:22:32.225Z,24.00
2018-07-25T04:23:32.431Z,24.00
2018-07-25T04:24:32.309Z,24.00
2018-07-25T04:25:32.439Z,28.00
2018-07-25T04:26:32.243Z,24.00
2018-07-25T04:27:32.471Z,28.00
2018-07-25T04:28:32.255Z,28.00
2018-07-25T04:29:32.258Z,28.00
2018-07-25T04:30:32.258Z,32.00
2018-07-25T04:31:32.275Z,28.00
2018-07-25T04:32:32.268Z,32.00
2018-07-25T04:33:32.284Z,28.00
2018-07-25T04:34:32.285Z,32.00
2018-07-25T04:35:32.491Z,36.00
2018-07-25T04:36:32.301Z,32.00
2018-07-25T04:37:32.293Z,36.00
2018-07-25T04:38:32.310Z,36.00
2018-07-25T04:39:32.326Z,36.00
2018-07-25T04:40:32.514Z,36.00
2018-07-25T04:41:32.313Z,36.00
2018-07-25T04:42:32.520Z,40.00
2018-07-25T04:43:32.323Z,40.00
2018-07-25T04:44:32.339Z,40.00
2018-07-25T04:45:32.331Z,44.00
2018-07-25T04:46:32.374Z,44.00
2018-07-25T04:47:32.366Z,44.00
2018-07-25T04:48:32.343Z,48.00
2018-07-25T04:49:32.350Z,48.00
2018-07-25T04:50:32.368Z,52.00
2018-07-25T04:51:32.354Z,44.00
2018-07-25T04:52:32.576Z,52.00
2018-07-25T04:53:32.581Z,72.00
2018-07-25T04:54:32.369Z,76.00
2018-07-25T04:55:32.390Z,84.00
2018-07-25T04:56:32.396Z,92.00
2018-07-25T04:57:32.599Z,100.00
2018-07-25T04:58:32.595Z,104.00
2018-07-25T04:59:32.396Z,104.00
2018-07-25T05:00:32.412Z,104.00
2018-07-25T05:01:32.425Z,104.00
2018-07-25T05:02:32.420Z,100.00
2018-07-25T05:03:32.419Z,100.00
2018-07-25T05:04:32.634Z,100.00
2018-07-25T05:05:32.422Z,100.00
2018-07-25T05:06:32.481Z,104.00
2018-07-25T05:07:32.432Z,108.00
2018-07-25T05:08:32.450Z,108.00
2018-07-25T05:09:32.454Z,100.00
2018-07-25T05:10:32.452Z,96.00
2018-07-25T05:11:32.461Z,96.00
2018-07-25T05:12:32.539Z,96.00
2018-07-25T05:13:32.473Z,100.00
2018-07-25T05:14:32.478Z,100.00
2018-07-25T05:15:32.488Z,96.00
2018-07-25T05:16:32.476Z,96.00
2018-07-25T05:17:32.482Z,96.00
2018-07-25T05:18:32.504Z,96.00
2018-07-25T05:19:32.492Z,92.00
2018-07-25T05:20:32.496Z,88.00
2018-07-25T05:21:32.500Z,88.00
2018-07-25T05:22:32.507Z,96.00
2018-07-25T05:23:32.520Z,96.00
2018-07-25T05:24:32.516Z,100.00
2018-07-25T05:25:32.723Z,104.00
2018-07-25T05:26:32.537Z,108.00
2018-07-25T05:27:32.531Z,112.00
2018-07-25T05:28:32.540Z,112.00
2018-07-25T05:29:32.742Z,112.00
2018-07-25T05:30:32.749Z,112.00
2018-07-25T05:31:32.551Z,112.00
2018-07-25T05:32:32.568Z,112.00
2018-07-25T05:33:32.573Z,108.00
2018-07-25T05:34:32.576Z,112.00
2018-07-25T05:35:32.574Z,116.00
2018-07-25T05:36:32.586Z,120.00
2018-07-25T05:37:32.582Z,124.00
2018-07-25T05:38:32.589Z,132.00
2018-07-25T05:39:32.598Z,300.00
2018-07-25T05:40:32.798Z,364.00
2018-07-25T05:41:32.621Z,140.00
2018-07-25T05:42:32.623Z,140.00
2018-07-25T05:43:32.611Z,132.00
2018-07-25T05:44:32.818Z,132.00
2018-07-25T05:45:32.649Z,140.00
2018-07-25T05:46:32.632Z,140.00
2018-07-25T05:47:32.843Z,140.00
2018-07-25T05:48:32.649Z,144.00
2018-07-25T05:49:32.698Z,148.00
2018-07-25T05:50:32.850Z,148.00
2018-07-25T05:51:32.663Z,148.00
2018-07-25T05:52:32.660Z,152.00
2018-07-25T05:53:32.666Z,152.00
2018-07-25T05:54:32.684Z,152.00
2018-07-25T05:55:32.677Z,156.00
2018-07-25T05:56:32.679Z,160.00
2018-07-25T05:57:32.900Z,160.00
2018-07-25T05:58:32.891Z,160.00
2018-07-25T05:59:32.698Z,164.00
2018-07-25T06:00:32.906Z,164.00
2018-07-25T06:01:32.710Z,164.00
2018-07-25T06:02:32.923Z,168.00
2018-07-25T06:03:32.814Z,164.00
2018-07-25T06:04:32.738Z,168.00
2018-07-25T06:05:32.742Z,184.00
2018-07-25T06:06:32.754Z,204.00
2018-07-25T06:07:32.945Z,332.00
2018-07-25T06:08:32.764Z,172.00
2018-07-25T06:09:32.754Z,172.00
2018-07-25T06:10:32.769Z,228.00
2018-07-25T06:11:32.765Z,228.00
2018-07-25T06:12:32.779Z,176.00
2018-07-25T06:13:32.776Z,172.00
2018-07-25T06:14:32.788Z,180.00
2018-07-25T06:15:32.788Z,180.00
2018-07-25T06:16:33.004Z,176.00
2018-07-25T06:17:32.798Z,172.00
2018-07-25T06:18:32.816Z,176.00
2018-07-25T06:19:32.807Z,176.00
2018-07-25T06:20:32.846Z,184.00
2018-07-25T06:21:32.822Z,188.00
2018-07-25T06:22:32.837Z,192.00
2018-07-25T06:23:32.835Z,192.00
2018-07-25T06:24:33.051Z,200.00
2018-07-25T06:25:33.046Z,216.00
2018-07-25T06:26:32.873Z,224.00
2018-07-25T06:27:32.864Z,368.00
2018-07-25T06:28:32.858Z,2756.00
2018-07-25T06:29:33.089Z,2140.00
2018-07-25T06:30:32.885Z,212.00
2018-07-25T06:31:32.889Z,204.00
2018-07-25T06:32:32.904Z,200.00
2018-07-25T06:33:32.886Z,200.00
2018-07-25T06:34:33.097Z,196.00
2018-07-25T06:35:32.908Z,200.00
2018-07-25T06:36:32.911Z,212.00
2018-07-25T06:37:32.911Z,216.00
2018-07-25T06:38:32.915Z,220.00
2018-07-25T06:39:33.137Z,212.00
2018-07-25T06:40:32.927Z,172.00
2018-07-25T06:41:32.945Z,184.00
2018-07-25T06:42:32.953Z,200.00
2018-07-25T06:43:33.003Z,164.00
2018-07-25T06:44:32.951Z,176.00
2018-07-25T06:45:32.957Z,220.00
2018-07-25T06:46:32.970Z,268.00
2018-07-25T06:47:32.969Z,296.00
2018-07-25T06:48:33.176Z,328.00
2018-07-25T06:49:32.980Z,340.00
2018-07-25T06:50:32.982Z,332.00
2018-07-25T06:51:32.990Z,296.00
2018-07-25T06:52:33.019Z,288.00
2018-07-25T06:53:33.003Z,400.00
2018-07-25T06:54:33.008Z,376.00
2018-07-25T06:55:33.227Z,292.00
2018-07-25T06:56:33.021Z,180.00
2018-07-25T06:57:33.027Z,172.00
2018-07-25T06:58:33.032Z,160.00
2018-07-25T06:59:33.052Z,164.00
2018-07-25T07:00:33.058Z,172.00
2018-07-25T07:01:33.062Z,236.00
2018-07-25T07:02:33.055Z,336.00
2018-07-25T07:03:33.075Z,312.00
2018-07-25T07:04:33.068Z,248.00
2018-07-25T07:05:33.075Z,244.00
2018-07-25T07:06:33.127Z,248.00
2018-07-25T07:07:33.089Z,252.00
2018-07-25T07:08:33.306Z,248.00
2018-07-25T07:09:33.100Z,272.00
2018-07-25T07:10:33.106Z,288.00
2018-07-25T07:11:33.133Z,268.00
2018-07-25T07:12:33.116Z,280.00
2018-07-25T07:13:33.329Z,268.00
2018-07-25T07:14:33.131Z,268.00
2018-07-25T07:15:33.146Z,276.00
2018-07-25T07:16:33.346Z,280.00
2018-07-25T07:17:33.248Z,288.00
2018-07-25T07:18:33.169Z,308.00
2018-07-25T07:19:33.160Z,332.00
2018-07-25T07:20:33.167Z,340.00
2018-07-25T07:21:33.173Z,328.00
2018-07-25T07:22:33.178Z,340.00
2018-07-25T07:23:33.184Z,332.00
2018-07-25T07:24:33.192Z,300.00
2018-07-25T07:25:33.211Z,408.00
2018-07-25T07:26:33.215Z,956.00
2018-07-25T07:27:33.219Z,1036.00
2018-07-25T07:28:33.228Z,804.00
2018-07-25T07:29:33.427Z,872.00
2018-07-25T07:30:33.449Z,892.00
2018-07-25T07:31:33.315Z,704.00
2018-07-25T07:32:33.462Z,592.00
2018-07-25T07:33:33.251Z,548.00
2018-07-25T07:34:33.460Z,468.00
2018-07-25T07:35:33.465Z,444.00
2018-07-25T07:36:33.484Z,424.00
2018-07-25T07:37:33.440Z,420.00
2018-07-25T07:38:33.283Z,404.00
2018-07-25T07:39:33.288Z,288.00
2018-07-25T07:40:33.294Z,376.00
2018-07-25T07:41:33.315Z,356.00
2018-07-25T07:42:33.307Z,344.00
2018-07-25T07:43:33.314Z,340.00
2018-07-25T07:44:33.321Z,324.00
2018-07-25T07:45:33.327Z,336.00
2018-07-25T07:46:33.334Z,328.00
2018-07-25T07:47:33.356Z,320.00
2018-07-25T07:48:33.348Z,316.00
2018-07-25T07:49:33.364Z,324.00
2018-07-25T07:50:33.372Z,368.00
2018-07-25T07:51:33.581Z,328.00
2018-07-25T07:52:33.406Z,332.00
2018-07-25T07:53:33.583Z,332.00
2018-07-25T07:54:33.591Z,336.00
2018-07-25T07:55:33.403Z,336.00
2018-07-25T07:56:33.412Z,344.00
2018-07-25T07:57:33.437Z,344.00
2018-07-25T07:58:33.416Z,364.00
2018-07-25T07:59:33.623Z,368.00
2018-07-25T08:00:33.438Z,388.00
2018-07-25T08:01:33.435Z,420.00
2018-07-25T08:02:33.439Z,412.00
2018-07-25T08:03:33.650Z,440.00
2018-07-25T08:04:33.656Z,512.00
2018-07-25T08:05:33.460Z,448.00
2018-07-25T08:06:33.477Z,488.00
2018-07-25T08:07:33.488Z,476.00
2018-07-25T08:08:33.483Z,468.00
2018-07-25T08:09:33.488Z,436.00
2018-07-25T08:10:33.516Z,432.00
2018-07-25T08:11:33.718Z,428.00
2018-07-25T08:12:33.507Z,444.00
2018-07-25T08:13:33.726Z,452.00
2018-07-25T08:14:33.529Z,516.00
2018-07-25T08:15:33.729Z,596.00
2018-07-25T08:16:33.534Z,680.00
2018-07-25T08:17:33.544Z,708.00
2018-07-25T08:18:33.548Z,728.00
2018-07-25T08:19:33.552Z,576.00
2018-07-25T08:20:33.763Z,584.00
2018-07-25T08:21:33.609Z,540.00
2018-07-25T08:22:33.572Z,612.00
2018-07-25T08:23:33.584Z,592.00
2018-07-25T08:24:33.800Z,540.00
2018-07-25T08:25:33.597Z,544.00
2018-07-25T08:26:33.601Z,564.00
2018-07-25T08:27:33.812Z,664.00
2018-07-25T08:28:33.625Z,784.00
2018-07-25T08:29:33.839Z,616.00
2018-07-25T08:30:33.628Z,1084.00
2018-07-25T08:31:33.637Z,940.00
2018-07-25T08:32:33.857Z,976.00
2018-07-25T08:33:33.854Z,916.00
2018-07-25T08:34:33.728Z,796.00
2018-07-25T08:35:33.880Z,600.00
2018-07-25T08:36:33.672Z,644.00
2018-07-25T08:37:33.679Z,468.00
2018-07-25T08:38:33.888Z,512.00
2018-07-25T08:39:33.725Z,600.00
2018-07-25T08:40:33.711Z,456.00
2018-07-25T08:41:33.709Z,472.00
2018-07-25T08:42:33.741Z,492.00
2018-07-25T08:43:33.923Z,412.00
2018-07-25T08:44:33.739Z,692.00
2018-07-25T08:45:33.736Z,388.00
2018-07-25T08:46:33.739Z,420.00
2018-07-25T08:47:33.952Z,476.00
2018-07-25T08:48:33.772Z,488.00
2018-07-25T08:49:33.774Z,492.00
2018-07-25T08:50:33.772Z,496.00
2018-07-25T08:51:33.790Z,520.00
2018-07-25T08:52:34.061Z,420.00
2018-07-25T08:53:33.802Z,388.00
2018-07-25T08:54:33.836Z,472.00
2018-07-25T08:55:33.828Z,416.00
2018-07-25T08:56:34.028Z,416.00
2018-07-25T08:57:33.818Z,408.00
2018-07-25T08:58:33.857Z,436.00
2018-07-25T08:59:33.832Z,464.00
2018-07-25T09:00:33.872Z,480.00
2018-07-25T09:01:34.061Z,568.00
2018-07-25T09:02:33.867Z,636.00
2018-07-25T09:03:33.871Z,868.00
2018-07-25T09:04:33.879Z,1972.00
2018-07-25T09:05:33.875Z,636.00
2018-07-25T09:06:33.938Z,312.00
2018-07-25T09:07:33.919Z,468.00
2018-07-25T09:08:33.896Z,436.00
2018-07-25T09:09:33.943Z,404.00
2018-07-25T09:10:33.907Z,412.00
2018-07-25T09:11:33.945Z,412.00
2018-07-25T09:12:33.941Z,404.00
2018-07-25T09:13:34.132Z,400.00
2018-07-25T09:14:33.947Z,392.00
2018-07-25T09:15:34.158Z,388.00
2018-07-25T09:16:34.157Z,368.00
2018-07-25T09:17:33.956Z,340.00
2018-07-25T09:18:34.177Z,364.00
2018-07-25T09:19:33.970Z,364.00
2018-07-25T09:20:33.988Z,352.00
2018-07-25T09:21:33.987Z,324.00
2018-07-25T09:22:33.995Z,340.00
2018-07-25T09:23:34.011Z,328.00
2018-07-25T09:24:34.006Z,332.00
2018-07-25T09:25:34.081Z,324.00
2018-07-25T09:26:34.237Z,320.00
2018-07-25T09:27:34.230Z,320.00
2018-07-25T09:28:34.045Z,320.00
2018-07-25T09:29:34.257Z,304.00
2018-07-25T09:30:34.049Z,300.00
2018-07-25T09:31:34.066Z,308.00
2018-07-25T09:32:34.066Z,284.00
2018-07-25T09:33:34.279Z,296.00
2018-07-25T09:34:34.077Z,284.00
2018-07-25T09:35:34.301Z,296.00
2018-07-25T09:36:34.295Z,292.00
2018-07-25T09:37:34.100Z,288.00
2018-07-25T09:38:34.119Z,296.00
2018-07-25T09:39:34.129Z,288.00
2018-07-25T09:40:34.132Z,292.00
2018-07-25T09:41:34.141Z,296.00
2018-07-25T09:42:34.157Z,296.00
2018-07-25T09:43:34.174Z,292.00
2018-07-25T09:44:34.365Z,292.00
2018-07-25T09:45:34.385Z,260.00
2018-07-25T09:46:34.173Z,280.00
2018-07-25T09:47:34.392Z,276.00
2018-07-25T09:48:34.384Z,264.00
2018-07-25T09:49:34.197Z,280.00
2018-07-25T09:50:34.215Z,276.00
2018-07-25T09:51:34.228Z,276.00
2018-07-25T09:52:34.434Z,272.00
2018-07-25T09:53:34.233Z,272.00
2018-07-25T09:54:34.233Z,264.00
2018-07-25T09:55:34.463Z,244.00
2018-07-25T09:56:34.253Z,268.00
2018-07-25T09:57:34.245Z,264.00
2018-07-25T09:58:34.250Z,264.00
2018-07-25T09:59:34.288Z,264.00
2018-07-25T10:00:34.279Z,260.00
2018-07-25T10:01:34.275Z,252.00
2018-07-25T10:02:34.290Z,256.00
2018-07-25T10:03:34.520Z,244.00
2018-07-25T10:04:34.500Z,248.00
2018-07-25T10:05:34.317Z,256.00
2018-07-25T10:06:34.330Z,248.00
2018-07-25T10:07:34.394Z,252.00
2018-07-25T10:08:34.532Z,256.00
2018-07-25T10:09:34.350Z,260.00
2018-07-25T10:10:34.345Z,248.00
2018-07-25T10:11:34.353Z,240.00
2018-07-25T10:12:34.363Z,256.00
2018-07-25T10:13:34.367Z,260.00
2018-07-25T10:14:34.404Z,248.00
2018-07-25T10:15:34.391Z,260.00
2018-07-25T10:16:34.603Z,264.00
2018-07-25T10:17:34.451Z,252.00
2018-07-25T10:18:34.427Z,256.00
2018-07-25T10:19:34.412Z,248.00
2018-07-25T10:20:34.462Z,248.00
2018-07-25T10:21:34.634Z,248.00
2018-07-25T10:22:34.437Z,248.00
2018-07-25T10:23:34.445Z,244.00
2018-07-25T10:24:34.452Z,244.00
2018-07-25T10:25:34.460Z,240.00
2018-07-25T10:26:34.465Z,244.00
2018-07-25T10:27:34.500Z,240.00
2018-07-25T10:28:34.696Z,236.00
2018-07-25T10:29:34.515Z,248.00
2018-07-25T10:30:34.499Z,240.00
2018-07-25T10:31:34.707Z,244.00
2018-07-25T10:32:34.717Z,244.00
2018-07-25T10:33:34.550Z,240.00
2018-07-25T10:34:34.529Z,240.00
2018-07-25T10:35:34.537Z,244.00
2018-07-25T10:36:34.549Z,232.00
2018-07-25T10:37:34.562Z,236.00
2018-07-25T10:38:34.569Z,220.00
2018-07-25T10:39:34.569Z,236.00
2018-07-25T10:40:34.577Z,232.00
2018-07-25T10:41:34.585Z,216.00
2018-07-25T10:42:34.651Z,236.00
2018-07-25T10:43:34.597Z,228.00
2018-07-25T10:44:34.609Z,236.00
2018-07-25T10:45:34.816Z,228.00
2018-07-25T10:46:34.841Z,224.00
2018-07-25T10:47:34.834Z,216.00
2018-07-25T10:48:34.641Z,212.00
2018-07-25T10:49:34.646Z,220.00
2018-07-25T10:50:34.880Z,212.00
2018-07-25T10:51:34.665Z,220.00
2018-07-25T10:52:34.672Z,220.00
2018-07-25T10:53:34.883Z,204.00
2018-07-25T10:54:34.894Z,208.00
2018-07-25T10:55:34.909Z,200.00
2018-07-25T10:56:34.918Z,200.00
2018-07-25T10:57:34.711Z,208.00
2018-07-25T10:58:34.723Z,196.00
2018-07-25T10:59:34.726Z,188.00
2018-07-25T11:00:34.751Z,200.00
2018-07-25T11:01:34.745Z,196.00
2018-07-25T11:02:34.956Z,192.00
2018-07-25T11:03:34.769Z,192.00
2018-07-25T11:04:34.768Z,196.00
2018-07-25T11:05:34.778Z,192.00
2018-07-25T11:06:34.784Z,188.00
2018-07-25T11:07:35.001Z,184.00
2018-07-25T11:08:34.813Z,184.00
2018-07-25T11:09:35.039Z,188.00
2018-07-25T11:10:35.022Z,192.00
2018-07-25T11:11:34.828Z,192.00
2018-07-25T11:12:35.043Z,196.00
2018-07-25T11:13:34.842Z,192.00
2018-07-25T11:14:34.866Z,188.00
2018-07-25T11:15:34.868Z,188.00
2018-07-25T11:16:35.059Z,188.00
2018-07-25T11:17:34.877Z,184.00
2018-07-25T11:18:34.880Z,184.00
2018-07-25T11:19:35.094Z,180.00
2018-07-25T11:20:34.909Z,176.00
2018-07-25T11:21:34.921Z,168.00
2018-07-25T11:22:34.918Z,180.00
2018-07-25T11:23:34.924Z,176.00
2018-07-25T11:24:34.930Z,176.00
2018-07-25T11:25:34.943Z,176.00
2018-07-25T11:26:34.954Z,176.00
2018-07-25T11:27:35.161Z,172.00
2018-07-25T11:28:34.965Z,172.00
2018-07-25T11:29:34.987Z,164.00
2018-07-25T11:30:35.003Z,168.00
2018-07-25T11:31:34.993Z,164.00
2018-07-25T11:32:35.078Z,172.00
2018-07-25T11:33:35.033Z,168.00
2018-07-25T11:34:35.018Z,168.00
2018-07-25T11:35:35.229Z,168.00
2018-07-25T11:36:35.044Z,164.00
2018-07-25T11:37:35.056Z,160.00
2018-07-25T11:38:35.064Z,164.00
2018-07-25T11:39:35.270Z,152.00
2018-07-25T11:40:35.079Z,156.00
2018-07-25T11:41:35.076Z,156.00
2018-07-25T11:42:35.082Z,152.00
2018-07-25T11:43:35.123Z,152.00
2018-07-25T11:44:35.098Z,152.00
2018-07-25T11:45:35.110Z,148.00
2018-07-25T11:46:35.317Z,152.00
2018-07-25T11:47:35.124Z,148.00
2018-07-25T11:48:35.160Z,144.00
2018-07-25T11:49:35.145Z,148.00
2018-07-25T11:50:35.150Z,144.00
2018-07-25T11:51:35.162Z,140.00
2018-07-25T11:52:35.367Z,144.00
2018-07-25T11:53:35.186Z,144.00
2018-07-25T11:54:35.386Z,148.00
2018-07-25T11:55:35.310Z,148.00
2018-07-25T11:56:35.216Z,144.00
2018-07-25T11:57:35.221Z,148.00
2018-07-25T11:58:35.422Z,144.00
2018-07-25T11:59:35.227Z,140.00
2018-07-25T12:00:35.449Z,136.00
2018-07-25T12:01:35.297Z,140.00
2018-07-25T12:02:35.266Z,144.00
2018-07-25T12:03:35.468Z,148.00
2018-07-25T12:04:35.271Z,144.00
2018-07-25T12:05:35.293Z,144.00
2018-07-25T12:06:35.310Z,144.00
2018-07-25T12:07:35.323Z,140.00
2018-07-25T12:08:35.316Z,136.00
2018-07-25T12:09:35.316Z,136.00
2018-07-25T12:10:35.323Z,140.00
2018-07-25T12:11:35.345Z,144.00
2018-07-25T12:12:35.359Z,140.00
2018-07-25T12:13:35.552Z,148.00
2018-07-25T12:14:35.559Z,148.00
2018-07-25T12:15:35.377Z,144.00
2018-07-25T12:16:35.385Z,148.00
2018-07-25T12:17:35.384Z,144.00
2018-07-25T12:18:35.392Z,140.00
2018-07-25T12:19:35.400Z,144.00
2018-07-25T12:20:35.423Z,140.00
2018-07-25T12:21:35.423Z,144.00
2018-07-25T12:22:35.436Z,148.00
2018-07-25T12:23:35.450Z,148.00
2018-07-25T12:24:35.445Z,148.00
2018-07-25T12:25:35.665Z,152.00
2018-07-25T12:26:35.512Z,152.00
2018-07-25T12:27:35.685Z,152.00
2018-07-25T12:28:35.496Z,144.00
2018-07-25T12:29:35.521Z,148.00
2018-07-25T12:30:35.517Z,152.00
2018-07-25T12:31:35.506Z,148.00
2018-07-25T12:32:35.515Z,148.00
2018-07-25T12:33:35.524Z,152.00
2018-07-25T12:34:35.548Z,152.00
2018-07-25T12:35:35.540Z,156.00
2018-07-25T12:36:35.551Z,152.00
2018-07-25T12:37:35.573Z,152.00
2018-07-25T12:38:35.572Z,148.00
2018-07-25T12:39:35.580Z,156.00
2018-07-25T12:40:35.587Z,152.00
2018-07-25T12:41:35.603Z,156.00
2018-07-25T12:42:35.804Z,156.00
2018-07-25T12:43:35.822Z,156.00
2018-07-25T12:44:35.823Z,160.00
2018-07-25T12:45:35.632Z,160.00